Time;durP1;ratioP1;P1;durP2;ratioP2;P2;SDS_P1;SDS_P2;PMS_P1;PMS_P2;Temp;Humidity;BMP_temperature;BMP_pressure;BME280_temperature;BME280_humidity;BME280_pressure;Samples;Min_cycle;Max_cycle;Signal;HPM_P1;HPM_P2
2022/06/20 00:01:43;;;;;;;4.28;1.63;;;15.10;74.60;;;;;;5136059;27;20390;-40
2022/06/20 00:04:18;;;;;;;5.32;1.05;;;15.10;74.80;;;;;;5136290;27;20029;-38
2022/06/20 00:06:44;;;;;;;6.35;1.00;;;15.00;74.80;;;;;;5135930;27;20076;-38
2022/06/20 00:09:11;;;;;;;3.00;1.17;;;15.00;74.80;;;;;;5136264;27;20031;-39
2022/06/20 00:11:44;;;;;;;4.80;1.02;;;14.90;74.80;;;;;;5135934;27;20037;-39
2022/06/20 00:14:15;;;;;;;5.40;1.35;;;14.90;75.00;;;;;;5136171;27;20022;-38
2022/06/20 00:16:41;;;;;;;5.22;1.20;;;14.80;75.00;;;;;;5136030;27;20062;-39
2022/06/20 00:19:09;;;;;;;3.33;1.30;;;14.80;75.10;;;;;;5135740;27;20019;-40
2022/06/20 00:21:35;;;;;;;3.97;1.30;;;14.80;75.10;;;;;;5136069;27;20069;-39
2022/06/20 00:24:01;;;;;;;3.75;1.20;;;14.80;75.20;;;;;;5135658;27;20019;-40
2022/06/20 00:26:26;;;;;;;4.90;1.15;;;14.70;75.20;;;;;;5136009;27;20023;-40
2022/06/20 00:28:52;;;;;;;2.58;1.02;;;14.70;75.20;;;;;;5135549;27;20440;-39
2022/06/20 00:31:17;;;;;;;2.50;1.00;;;14.70;75.30;;;;;;5136112;27;20023;-39
2022/06/20 00:33:43;;;;;;;3.83;1.23;;;14.60;75.30;;;;;;5135468;27;20050;-38
2022/06/20 00:36:09;;;;;;;5.25;1.17;;;14.60;75.40;;;;;;5135512;27;20047;-38
2022/06/20 00:38:36;;;;;;;5.25;1.20;;;14.60;75.40;;;;;;5134815;27;20015;-40
2022/06/20 00:41:15;;;;;;;5.57;1.10;;;14.60;75.50;;;;;;5133918;27;20031;-39
2022/06/20 00:43:47;;;;;;;3.83;1.00;;;14.60;75.50;;;;;;5135325;27;20055;-40
2022/06/20 00:46:20;;;;;;;2.97;0.93;;;14.60;75.50;;;;;;5135691;27;20028;-40
2022/06/20 00:48:52;;;;;;;3.42;0.95;;;14.60;75.50;;;;;;5135321;27;20016;-38
2022/06/20 00:51:34;;;;;;;3.63;1.20;;;14.70;75.40;;;;;;5135079;27;20076;-39
2022/06/20 00:54:06;;;;;;;5.57;1.00;;;14.70;75.50;;;;;;5135038;27;20027;-39
2022/06/20 00:56:43;;;;;;;4.78;1.10;;;14.70;75.30;;;;;;5135066;27;20023;-39
2022/06/20 00:59:14;;;;;;;1.60;1.00;;;14.70;75.30;;;;;;5134655;27;20150;-40
2022/06/20 01:01:41;;;;;;;5.88;1.17;;;14.70;75.30;;;;;;5134721;27;20045;-40
2022/06/20 01:04:14;;;;;;;4.32;0.90;;;14.70;75.30;;;;;;5134910;27;20098;-39
2022/06/20 01:06:48;;;;;;;4.35;0.95;;;14.70;75.30;;;;;;5134647;27;20062;-39
2022/06/20 01:09:15;;;;;;;1.85;0.98;;;14.70;75.40;;;;;;5134860;27;20019;-38
2022/06/20 01:11:53;;;;;;;2.67;1.00;;;14.70;75.40;;;;;;5134622;27;20058;-39
2022/06/20 01:14:22;;;;;;;4.13;1.10;;;14.70;75.50;;;;;;5134456;27;20107;-44
2022/06/20 01:16:50;;;;;;;5.22;1.15;;;14.70;75.40;;;;;;5134279;27;20056;-39
2022/06/20 01:19:32;;;;;;;4.45;1.20;;;14.80;75.40;;;;;;5134563;27;20030;-39
2022/06/20 01:22:02;;;;;;;3.92;1.00;;;14.80;75.50;;;;;;5134318;27;20023;-39
2022/06/20 01:24:36;;;;;;;2.95;1.00;;;14.90;75.50;;;;;;5134154;27;20023;-39
2022/06/20 01:27:26;;;;;;;3.13;1.10;;;14.90;75.40;;;;;;5134216;27;20054;-46
2022/06/20 01:29:52;;;;;;;5.07;1.00;;;14.90;75.50;;;;;;5134236;27;20372;-39
2022/06/20 01:32:18;;;;;;;4.15;1.00;;;14.90;75.40;;;;;;5134145;27;20083;-39
2022/06/20 01:34:43;;;;;;;3.08;1.00;;;15.00;75.60;;;;;;5134205;27;20471;-45
2022/06/20 01:37:25;;;;;;;2.38;1.00;;;15.00;75.70;;;;;;5134662;27;20067;-39
2022/06/20 01:43:13;;;;;;;2.88;0.95;;;15.00;75.70;;;;;;5134429;27;20076;-40
2022/06/20 01:48:23;;;;;;;2.88;1.17;;;15.10;75.60;;;;;;5134337;27;20080;-39
2022/06/20 01:50:49;;;;;;;5.10;1.33;;;15.10;75.50;;;;;;5133560;27;20027;-40
2022/06/20 01:53:18;;;;;;;2.47;1.10;;;15.10;75.50;;;;;;5134159;27;20023;-39
2022/06/20 01:55:47;;;;;;;8.00;1.20;;;15.10;75.50;;;;;;5134269;27;20028;-39
2022/06/20 01:58:21;;;;;;;2.40;1.08;;;15.10;75.60;;;;;;5134316;27;20031;-40
2022/06/20 02:00:48;;;;;;;5.70;1.00;;;15.00;75.60;;;;;;5133645;27;20073;-40
2022/06/20 02:03:17;;;;;;;3.08;0.93;;;15.00;75.60;;;;;;5133664;27;20039;-42
2022/06/20 02:05:45;;;;;;;4.35;1.08;;;15.00;75.70;;;;;;5134451;28;20055;-41
2022/06/20 02:08:13;;;;;;;3.20;1.00;;;15.00;75.70;;;;;;5134309;28;20170;-39
2022/06/20 02:10:50;;;;;;;5.65;1.15;;;14.90;75.80;;;;;;5133889;28;20023;-39
2022/06/20 02:13:17;;;;;;;6.03;1.30;;;14.90;76.00;;;;;;5133603;28;20034;-39
2022/06/20 02:15:45;;;;;;;4.55;0.85;;;14.80;76.00;;;;;;5133585;28;20137;-38
2022/06/20 02:18:12;;;;;;;3.85;0.95;;;14.70;76.20;;;;;;5133600;28;20035;-39
2022/06/20 02:20:47;;;;;;;4.20;1.10;;;14.60;76.40;;;;;;5133769;28;20091;-40
2022/06/20 02:23:25;;;;;;;2.28;0.95;;;14.50;76.60;;;;;;5133817;28;20098;-38
2022/06/20 02:25:53;;;;;;;4.32;1.00;;;14.50;76.70;;;;;;5133554;28;20386;-38
2022/06/20 02:28:26;;;;;;;3.03;1.20;;;14.50;76.80;;;;;;5133853;28;20031;-39
2022/06/20 02:30:55;;;;;;;6.22;1.08;;;14.50;76.90;;;;;;5133677;28;20023;-38
2022/06/20 02:33:25;;;;;;;5.57;1.40;;;14.50;76.90;;;;;;5133548;28;20027;-39
2022/06/20 02:35:53;;;;;;;4.25;1.02;;;14.50;76.90;;;;;;5133644;28;20466;-38
2022/06/20 02:38:20;;;;;;;2.50;1.00;;;14.60;76.90;;;;;;5133450;28;20028;-39
2022/06/20 02:40:47;;;;;;;4.75;0.98;;;14.60;76.90;;;;;;5133550;28;20031;-38
2022/06/20 02:43:22;;;;;;;3.50;1.02;;;14.60;76.80;;;;;;5133606;28;20059;-38
2022/06/20 02:45:49;;;;;;;3.05;0.90;;;14.70;76.80;;;;;;5133389;28;20023;-38
2022/06/20 02:48:16;;;;;;;2.78;1.00;;;14.70;76.70;;;;;;5133883;28;20058;-39
2022/06/20 02:50:53;;;;;;;4.05;1.35;;;14.70;76.70;;;;;;5133341;28;20039;-39
2022/06/20 02:53:23;;;;;;;4.38;1.17;;;14.70;76.80;;;;;;5133478;28;20107;-39
2022/06/20 02:55:51;;;;;;;4.20;0.95;;;14.70;76.80;;;;;;5133488;28;20046;-37
2022/06/20 02:58:23;;;;;;;4.00;1.17;;;14.70;76.80;;;;;;5133654;28;20076;-39
2022/06/20 03:01:07;;;;;;;3.92;1.13;;;14.70;76.80;;;;;;5133240;28;20066;-37
2022/06/20 03:03:43;;;;;;;2.95;0.90;;;14.70;76.90;;;;;;5136034;27;20495;-39
2022/06/20 03:06:14;;;;;;;3.28;1.27;;;14.70;76.90;;;;;;5137359;27;20023;-39
2022/06/20 03:08:40;;;;;;;4.32;1.20;;;14.70;76.90;;;;;;5137118;27;20019;-39
2022/06/20 03:11:05;;;;;;;2.03;0.90;;;14.70;76.80;;;;;;5137179;27;20142;-38
2022/06/20 03:13:33;;;;;;;2.38;0.95;;;14.70;76.70;;;;;;5136907;27;20072;-38
2022/06/20 03:16:02;;;;;;;4.68;1.02;;;14.70;76.70;;;;;;5137134;27;20490;-40
2022/06/20 03:18:28;;;;;;;3.10;0.95;;;14.70;76.60;;;;;;5136847;27;20039;-40
2022/06/20 03:20:54;;;;;;;3.28;1.10;;;14.80;76.50;;;;;;5136956;27;20054;-40
2022/06/20 03:23:27;;;;;;;4.75;1.23;;;14.80;76.30;;;;;;5137065;27;20098;-39
2022/06/20 03:25:55;;;;;;;4.43;0.93;;;14.80;76.20;;;;;;5136665;27;20114;-39
2022/06/20 03:28:23;;;;;;;3.53;0.95;;;14.80;76.00;;;;;;5136853;27;20031;-39
2022/06/20 03:30:49;;;;;;;4.00;1.15;;;14.70;76.00;;;;;;5137098;27;20023;-39
2022/06/20 03:33:16;;;;;;;3.28;1.13;;;14.70;76.20;;;;;;5136805;27;20035;-41
2022/06/20 03:35:55;;;;;;;5.00;1.48;;;14.70;76.30;;;;;;5136817;27;20047;-40
2022/06/20 03:38:22;;;;;;;3.35;1.40;;;14.60;76.30;;;;;;5136446;27;20035;-39
2022/06/20 03:40:49;;;;;;;6.03;1.90;;;14.50;76.40;;;;;;5136538;27;20119;-38
2022/06/20 03:43:19;;;;;;;2.17;0.98;;;14.40;76.50;;;;;;5136610;27;20546;-40
2022/06/20 03:45:48;;;;;;;4.40;1.40;;;14.40;76.80;;;;;;5136318;27;20075;-39
2022/06/20 03:48:19;;;;;;;3.35;1.02;;;14.30;76.90;;;;;;5136200;27;20102;-39
2022/06/20 03:51:08;;;;;;;2.97;1.17;;;14.20;77.00;;;;;;5136114;27;20039;-39
2022/06/20 03:53:46;;;;;;;3.25;1.00;;;14.20;77.10;;;;;;5136173;27;20096;-40
2022/06/20 03:56:21;;;;;;;4.18;1.10;;;14.20;77.10;;;;;;5136388;27;20378;-39
2022/06/20 03:58:57;;;;;;;5.82;1.30;;;14.20;77.10;;;;;;5136193;27;20110;-39
2022/06/20 04:01:29;;;;;;;2.97;0.95;;;14.20;77.30;;;;;;5135853;27;20074;-39
2022/06/20 04:04:06;;;;;;;2.13;1.05;;;14.20;77.30;;;;;;5135583;27;20023;-39
2022/06/20 04:06:39;;;;;;;1.67;1.00;;;14.10;77.40;;;;;;5135913;27;20027;-39
2022/06/20 04:12:20;;;;;;;4.20;1.30;;;14.10;77.60;;;;;;5136239;27;20050;-39
2022/06/20 04:15:20;;;;;;;2.93;1.20;;;14.10;77.50;;;;;;5135765;27;20500;-38
2022/06/20 04:20:44;;;;;;;;;;;14.20;77.40;;;;;;5136060;27;20195;-39
2022/06/20 04:23:15;;;;;;;4.15;1.33;;;14.20;77.30;;;;;;5135946;27;19960;-39
2022/06/20 04:26:10;;;;;;;3.15;1.25;;;14.20;77.30;;;;;;5135639;27;20053;-40
2022/06/20 04:28:45;;;;;;;4.72;1.20;;;14.20;77.30;;;;;;5135475;27;20123;-39
2022/06/20 04:31:25;;;;;;;3.28;1.13;;;14.30;77.20;;;;;;5135390;27;20027;-38
2022/06/20 04:34:10;;;;;;;4.18;1.02;;;14.40;77.20;;;;;;5135313;27;20034;-38
2022/06/20 04:36:57;;;;;;;3.65;1.10;;;14.50;77.10;;;;;;5135364;27;20039;-39
2022/06/20 04:39:39;;;;;;;3.50;1.10;;;14.60;77.00;;;;;;5135418;27;20367;-40
2022/06/20 04:42:12;;;;;;;3.30;1.05;;;14.70;76.90;;;;;;5135347;27;20110;-38
2022/06/20 04:44:49;;;;;;;5.03;1.20;;;14.70;76.80;;;;;;5135655;27;20027;-39
2022/06/20 04:47:29;;;;;;;3.58;1.30;;;14.70;76.70;;;;;;5135398;27;20028;-39
2022/06/20 04:49:55;;;;;;;5.18;1.40;;;14.80;76.80;;;;;;5135037;27;20027;-38
2022/06/20 04:52:26;;;;;;;3.88;1.13;;;14.80;76.70;;;;;;5135191;27;20134;-39
2022/06/20 04:54:52;;;;;;;3.10;1.40;;;14.80;76.80;;;;;;5135108;27;20035;-38
2022/06/20 04:57:18;;;;;;;1.83;1.20;;;14.70;76.80;;;;;;5134980;27;20031;-38
2022/06/20 04:59:44;;;;;;;3.47;1.17;;;14.70;76.90;;;;;;5135080;27;20027;-38
2022/06/20 05:02:15;;;;;;;4.55;1.13;;;14.80;77.00;;;;;;5134988;27;20032;-39
2022/06/20 05:04:43;;;;;;;3.13;1.33;;;14.70;77.00;;;;;;5134812;27;20478;-40
2022/06/20 05:07:18;;;;;;;3.05;1.10;;;14.80;76.90;;;;;;5134666;27;20015;-40
2022/06/20 05:09:50;;;;;;;3.97;1.20;;;14.90;76.90;;;;;;5135173;27;20027;-37
2022/06/20 05:13:03;;;;;;;2.90;1.10;;;15.00;76.70;;;;;;5134928;27;20023;-39
2022/06/20 05:15:42;;;;;;;4.15;1.20;;;15.00;76.60;;;;;;5134840;27;20042;-39
2022/06/20 05:18:34;;;;;;;5.15;1.33;;;15.10;76.40;;;;;;5134393;27;20035;-40
2022/06/20 05:21:14;;;;;;;4.32;1.40;;;15.20;76.40;;;;;;5127324;27;20058;-39
2022/06/20 05:23:53;;;;;;;2.80;1.15;;;15.20;76.30;;;;;;5134412;27;20517;-39
2022/06/20 05:26:26;;;;;;;2.85;1.10;;;15.30;76.30;;;;;;5132565;27;20031;-39
2022/06/20 05:28:55;;;;;;;7.00;1.55;;;15.40;76.30;;;;;;5134572;27;20027;-39
2022/06/20 05:31:30;;;;;;;3.38;1.20;;;15.50;76.10;;;;;;5134277;27;20027;-39
2022/06/20 05:34:01;;;;;;;2.88;0.98;;;15.50;75.80;;;;;;5134463;27;20060;-39
2022/06/20 05:36:59;;;;;;;3.92;1.42;;;15.60;75.70;;;;;;5134602;27;20110;-39
2022/06/20 05:39:36;;;;;;;4.43;1.48;;;15.60;75.60;;;;;;5128833;27;20042;-40
2022/06/20 05:42:03;;;;;;;4.50;1.20;;;15.60;75.60;;;;;;5134824;27;20019;-39
2022/06/20 05:44:29;;;;;;;3.70;1.17;;;15.60;75.50;;;;;;5134303;27;20084;-40
2022/06/20 05:46:59;;;;;;;4.07;1.35;;;15.60;75.40;;;;;;5134234;27;20027;-45
2022/06/20 05:49:38;;;;;;;3.00;1.27;;;15.60;75.40;;;;;;5134156;27;20027;-40
2022/06/20 05:52:07;;;;;;;5.22;1.27;;;15.60;75.40;;;;;;5134137;27;20039;-40
2022/06/20 05:54:38;;;;;;;5.07;1.20;;;15.60;75.40;;;;;;5134466;27;20034;-39
2022/06/20 05:57:13;;;;;;;2.35;0.93;;;15.60;75.30;;;;;;5134013;27;20027;-40
2022/06/20 06:00:19;;;;;;;4.60;1.40;;;15.70;75.20;;;;;;5134052;27;20125;-39
2022/06/20 06:03:04;;;;;;;3.78;1.25;;;15.70;75.00;;;;;;5070393;28;20045;-38
2022/06/20 06:05:41;;;;;;;3.42;1.08;;;15.70;75.00;;;;;;5128855;27;20035;-38
2022/06/20 06:08:26;;;;;;;3.42;0.98;;;15.70;74.90;;;;;;5133967;28;20026;-38
2022/06/20 06:10:59;;;;;;;14.20;1.70;;;15.70;74.70;;;;;;5133716;28;20034;-40
2022/06/20 06:13:33;;;;;;;2.45;1.00;;;15.60;74.70;;;;;;5133944;28;20122;-40
2022/06/20 06:19:12;;;;;;;3.55;1.10;;;15.50;75.00;;;;;;5132987;28;20405;-41
2022/06/20 06:21:37;;;;;;;;;;;15.50;75.10;;;;;;5134353;28;20193;-39
2022/06/20 06:24:06;;;;;;;2.65;0.95;;;15.50;75.10;;;;;;5133824;27;20392;-39
2022/06/20 06:26:34;;;;;;;3.38;1.67;;;15.70;74.90;;;;;;5134635;28;20026;-40
2022/06/20 06:29:00;;;;;;;3.35;1.23;;;15.90;74.50;;;;;;5133762;28;20034;-42
2022/06/20 06:31:32;;;;;;;2.95;1.05;;;16.10;74.00;;;;;;5133693;28;20023;-39
2022/06/20 06:34:11;;;;;;;3.88;1.60;;;16.30;73.60;;;;;;5133325;28;20026;-38
2022/06/20 06:36:44;;;;;;;4.30;1.30;;;16.40;73.00;;;;;;5135012;27;20033;-39
2022/06/20 06:39:15;;;;;;;4.95;1.10;;;16.40;72.60;;;;;;5137508;27;20027;-38
2022/06/20 06:41:45;;;;;;;5.50;1.38;;;16.40;72.50;;;;;;5137863;27;20019;-38
2022/06/20 06:44:31;;;;;;;4.20;1.25;;;16.50;72.50;;;;;;5138104;27;20023;-39
2022/06/20 06:46:59;;;;;;;2.97;1.20;;;16.40;72.40;;;;;;5137217;27;20494;-39
2022/06/20 06:49:42;;;;;;;6.32;1.30;;;16.40;72.40;;;;;;5137449;27;20027;-38
2022/06/20 06:52:38;;;;;;;5.60;1.27;;;16.50;72.30;;;;;;5137787;27;20049;-40
2022/06/20 06:55:23;;;;;;;4.07;1.10;;;16.60;72.10;;;;;;5137365;27;20027;-39
2022/06/20 06:58:00;;;;;;;4.97;1.50;;;16.70;71.70;;;;;;5137026;27;20110;-39
2022/06/20 07:00:33;;;;;;;3.17;1.25;;;16.80;71.60;;;;;;5137321;27;20484;-39
2022/06/20 07:03:05;;;;;;;;;;;16.90;71.40;;;;;;5137619;27;20421;-40
2022/06/20 07:05:35;;;;;;;4.28;1.73;;;16.90;70.60;;;;;;5137540;27;19914;-38
2022/06/20 07:08:09;;;;;;;5.68;1.70;;;16.90;70.80;;;;;;5137092;27;20046;-39
2022/06/20 07:10:55;;;;;;;4.68;1.65;;;16.90;70.80;;;;;;5137373;27;20042;-39
2022/06/20 07:13:43;;;;;;;3.30;1.50;;;16.90;70.90;;;;;;5137039;27;20123;-39
2022/06/20 07:16:29;;;;;;;3.92;1.50;;;16.90;70.70;;;;;;5137035;27;20394;-39
2022/06/20 07:18:57;;;;;;;3.33;1.65;;;17.00;70.60;;;;;;5136685;27;20023;-38
2022/06/20 07:21:24;;;;;;;4.35;2.13;;;17.00;70.40;;;;;;5136569;27;20141;-39
2022/06/20 07:24:04;;;;;;;3.80;1.90;;;17.00;70.20;;;;;;5136630;27;20023;-38
2022/06/20 07:26:55;;;;;;;2.70;1.67;;;16.90;69.90;;;;;;5136477;27;20044;-39
2022/06/20 07:29:30;;;;;;;6.63;1.70;;;17.00;69.90;;;;;;5136337;27;20051;-41
2022/06/20 07:32:01;;;;;;;5.95;1.60;;;17.00;69.60;;;;;;5135151;27;20114;-39
2022/06/20 07:34:50;;;;;;;4.00;1.80;;;17.10;69.20;;;;;;5134956;27;20027;-39
2022/06/20 07:37:21;;;;;;;3.97;1.90;;;17.30;69.00;;;;;;5136623;27;20023;-40
2022/06/20 07:39:55;;;;;;;4.03;1.80;;;17.30;68.60;;;;;;5136605;27;20064;-40
2022/06/20 07:42:31;;;;;;;5.00;1.63;;;17.40;68.30;;;;;;5136596;27;20087;-39
2022/06/20 07:45:19;;;;;;;4.10;1.88;;;17.50;67.80;;;;;;5136093;27;20115;-40
2022/06/20 07:48:02;;;;;;;4.95;1.98;;;17.70;67.30;;;;;;5124344;27;20035;-38
2022/06/20 07:50:34;;;;;;;7.05;2.40;;;17.80;66.60;;;;;;5136344;27;20031;-40
2022/06/20 07:53:30;;;;;;;3.13;1.70;;;17.80;65.90;;;;;;5136010;27;20079;-40
2022/06/20 07:56:00;;;;;;;5.57;1.70;;;17.70;65.90;;;;;;5135089;27;20039;-40
2022/06/20 07:58:30;;;;;;;3.25;1.60;;;17.60;66.20;;;;;;5136521;27;20051;-40
2022/06/20 08:01:00;;;;;;;3.97;1.80;;;17.50;66.10;;;;;;5135803;27;20039;-39
2022/06/20 08:03:29;;;;;;;4.60;2.00;;;17.40;66.60;;;;;;5135774;27;20402;-40
2022/06/20 08:06:21;;;;;;;3.97;1.88;;;17.50;66.40;;;;;;5135808;27;20114;-41
2022/06/20 08:08:54;;;;;;;3.50;1.70;;;17.60;65.80;;;;;;5108438;27;20046;-41
2022/06/20 08:11:43;;;;;;;3.75;1.85;;;17.70;65.60;;;;;;5135793;27;20034;-40
2022/06/20 08:14:18;;;;;;;3.03;1.58;;;17.80;64.60;;;;;;5136001;27;20101;-40
2022/06/20 08:16:48;;;;;;;5.57;1.50;;;17.70;64.70;;;;;;5135538;27;20031;-38
2022/06/20 08:19:14;;;;;;;2.72;1.63;;;17.80;64.00;;;;;;5135389;27;20023;-40
2022/06/20 08:21:44;;;;;;;3.95;1.60;;;17.80;63.20;;;;;;5135880;27;20030;-40
2022/06/20 08:24:17;;;;;;;3.65;1.90;;;17.90;62.30;;;;;;5135617;27;20019;-40
2022/06/20 08:27:06;;;;;;;3.70;1.83;;;18.00;62.30;;;;;;5135358;27;20023;-39
2022/06/20 08:29:37;;;;;;;5.28;2.05;;;18.10;62.10;;;;;;5135226;27;20076;-38
2022/06/20 08:32:29;;;;;;;8.20;2.03;;;18.10;62.30;;;;;;5135636;27;20143;-39
2022/06/20 08:35:23;;;;;;;5.50;2.20;;;18.10;62.10;;;;;;5134866;27;20031;-39
2022/06/20 08:37:53;;;;;;;;;;;18.20;62.00;;;;;;5129169;27;20573;-39
2022/06/20 08:40:37;;;;;;;3.50;1.60;;;18.20;61.80;;;;;;5135358;27;19964;-41
2022/06/20 08:43:11;;;;;;;;;;;18.20;61.60;;;;;;5135463;27;20027;-39
2022/06/20 08:45:50;;;;;;;4.45;1.70;;;18.30;60.60;;;;;;5135125;27;19912;-40
2022/06/20 08:48:40;;;;;;;4.43;1.90;;;18.40;61.00;;;;;;5135639;27;20076;-40
2022/06/20 08:51:40;;;;;;;5.40;1.70;;;18.40;60.60;;;;;;5135430;27;20358;-40
2022/06/20 08:54:15;;;;;;;3.97;1.45;;;18.30;60.60;;;;;;5134773;27;20316;-39
2022/06/20 08:56:57;;;;;;;3.75;1.73;;;18.20;60.20;;;;;;5134716;27;20580;-40
2022/06/20 08:59:58;;;;;;;5.22;1.88;;;18.20;59.80;;;;;;5134042;27;20027;-40
2022/06/20 09:02:23;;;;;;;3.72;1.50;;;18.20;59.60;;;;;;5134431;27;20042;-40
2022/06/20 09:05:38;;;;;;;3.35;1.40;;;18.40;59.10;;;;;;5134480;27;20398;-39
2022/06/20 09:08:31;;;;;;;6.45;1.70;;;18.40;58.60;;;;;;5102928;27;20043;-39
2022/06/20 09:11:25;;;;;;;2.25;1.40;;;18.40;58.00;;;;;;5134450;27;20023;-39
2022/06/20 09:14:03;;;;;;;3.53;1.90;;;18.50;58.30;;;;;;5134767;27;20034;-39
2022/06/20 09:16:53;;;;;;;3.40;1.60;;;18.50;58.50;;;;;;5134824;27;20031;-38
2022/06/20 09:19:44;;;;;;;4.22;1.70;;;18.50;58.80;;;;;;5134264;27;20046;-38
2022/06/20 09:22:28;;;;;;;4.07;1.70;;;18.50;58.50;;;;;;5134913;27;20030;-38
2022/06/20 09:25:16;;;;;;;4.40;1.45;;;18.40;56.60;;;;;;5134594;27;20103;-38
2022/06/20 09:28:05;;;;;;;4.13;1.50;;;18.50;56.70;;;;;;5134480;27;20031;-38
2022/06/20 09:31:18;;;;;;;2.92;1.30;;;18.50;56.80;;;;;;5134144;27;20035;-39
2022/06/20 09:34:01;;;;;;;3.75;1.40;;;18.70;57.10;;;;;;5106242;27;20043;-39
2022/06/20 09:36:48;;;;;;;4.22;1.67;;;18.90;57.20;;;;;;5134070;27;20508;-38
2022/06/20 09:39:22;;;;;;;5.32;1.90;;;19.10;56.90;;;;;;5134103;27;20058;-38
2022/06/20 09:42:00;;;;;;;3.58;1.30;;;19.20;57.10;;;;;;5134244;27;20059;-38
2022/06/20 09:44:35;;;;;;;3.05;1.80;;;19.40;57.10;;;;;;5133916;27;20023;-39
2022/06/20 09:47:06;;;;;;;2.90;1.40;;;19.50;57.00;;;;;;5133825;27;20066;-39
2022/06/20 09:49:46;;;;;;;3.25;1.40;;;19.50;56.70;;;;;;5134158;27;20030;-39
2022/06/20 09:52:36;;;;;;;4.82;1.67;;;19.40;56.40;;;;;;5133811;27;20502;-39
2022/06/20 09:55:23;;;;;;;3.22;1.30;;;19.40;56.20;;;;;;5133688;27;20114;-38
2022/06/20 09:57:49;;;;;;;4.57;1.70;;;19.50;56.10;;;;;;5134023;27;20438;-38
2022/06/20 10:00:23;;;;;;;8.20;1.77;;;19.50;56.00;;;;;;5134066;27;20107;-38
2022/06/20 10:03:26;;;;;;;2.72;1.42;;;19.40;55.80;;;;;;5133621;27;20463;-37
2022/06/20 10:06:11;;;;;;;4.00;1.67;;;19.40;56.00;;;;;;5133575;27;20176;-39
2022/06/20 10:09:02;;;;;;;5.35;1.80;;;19.40;56.10;;;;;;5133934;28;20023;-39
2022/06/20 10:11:36;;;;;;;3.92;1.40;;;19.50;56.20;;;;;;5132107;27;20055;-40
2022/06/20 10:14:39;;;;;;;2.00;1.17;;;19.40;55.20;;;;;;5133397;28;20043;-39
2022/06/20 10:17:29;;;;;;;4.85;1.50;;;19.50;55.30;;;;;;5122299;28;20558;-39
2022/06/20 10:20:10;;;;;;;3.65;1.42;;;19.50;55.20;;;;;;5133950;28;20039;-39
2022/06/20 10:22:54;;;;;;;3.03;1.50;;;19.50;54.90;;;;;;5133626;28;20431;-38
2022/06/20 10:25:46;;;;;;;2.67;1.20;;;19.60;54.40;;;;;;5133419;27;20071;-39
2022/06/20 10:28:33;;;;;;;4.43;1.48;;;19.70;54.30;;;;;;5133478;28;20026;-40
2022/06/20 10:31:10;;;;;;;3.60;1.35;;;19.80;54.00;;;;;;5133369;28;20358;-40
2022/06/20 10:33:50;;;;;;;3.38;1.42;;;19.80;53.60;;;;;;5133390;28;20023;-39
2022/06/20 10:36:24;;;;;;;4.03;1.45;;;19.80;52.40;;;;;;5133300;28;20035;-39
2022/06/20 10:39:10;;;;;;;4.40;1.10;;;19.80;52.60;;;;;;5133235;28;20019;-39
2022/06/20 10:41:51;;;;;;;2.45;1.00;;;19.90;52.80;;;;;;5133399;28;20534;-39
2022/06/20 10:44:23;;;;;;;4.03;1.10;;;20.00;52.30;;;;;;5131696;28;20475;-39
2022/06/20 10:46:59;;;;;;;2.78;1.02;;;20.10;51.70;;;;;;5133301;28;20466;-39
2022/06/20 10:49:57;;;;;;;1.75;1.10;;;20.30;50.80;;;;;;5133618;28;20038;-38
2022/06/20 10:52:59;;;;;;;3.90;1.10;;;20.40;50.80;;;;;;5098672;28;20083;-39
2022/06/20 10:56:02;;;;;;;2.58;1.00;;;20.40;50.60;;;;;;5133366;27;20033;-38
2022/06/20 10:58:46;;;;;;;4.38;1.13;;;20.50;51.00;;;;;;5133123;28;20039;-39
2022/06/20 11:01:45;;;;;;;3.05;1.10;;;20.70;50.60;;;;;;5133186;27;20034;-34
2022/06/20 11:04:52;;;;;;;2.03;1.10;;;20.80;50.30;;;;;;5133350;28;20374;-38
2022/06/20 11:07:40;;;;;;;1.88;1.30;;;20.80;49.70;;;;;;5133013;28;20039;-40
2022/06/20 11:10:15;;;;;;;2.85;1.10;;;20.70;49.70;;;;;;5132921;27;20023;-41
2022/06/20 11:12:49;;;;;;;4.25;1.30;;;20.70;49.40;;;;;;5133396;28;20027;-40
2022/06/20 11:15:27;;;;;;;3.33;1.58;;;20.70;49.10;;;;;;5133374;28;20023;-39
2022/06/20 11:18:03;;;;;;;1.80;0.90;;;20.80;49.40;;;;;;5133172;28;20084;-40
2022/06/20 11:20:53;;;;;;;3.20;1.13;;;20.90;49.00;;;;;;5132833;28;20043;-40
2022/06/20 11:23:29;;;;;;;3.08;1.10;;;21.00;49.10;;;;;;5134141;27;20466;-39
2022/06/20 11:26:14;;;;;;;1.75;1.10;;;20.90;48.90;;;;;;5136927;27;20102;-38
2022/06/20 11:29:15;;;;;;;2.30;1.20;;;20.80;49.20;;;;;;5136511;27;20028;-39
2022/06/20 11:31:46;;;;;;;2.75;1.27;;;20.70;49.50;;;;;;5136604;27;20030;-39
2022/06/20 11:34:28;;;;;;;1.55;0.93;;;20.70;49.90;;;;;;5136258;27;20019;-39
2022/06/20 11:37:22;;;;;;;2.95;1.20;;;20.90;49.70;;;;;;5136519;27;20424;-38
2022/06/20 11:40:13;;;;;;;3.20;1.30;;;20.80;49.70;;;;;;5136105;27;20027;-39
2022/06/20 11:43:09;;;;;;;5.18;1.73;;;20.60;49.80;;;;;;5136440;27;20069;-39
2022/06/20 11:45:59;;;;;;;4.05;1.40;;;20.40;50.10;;;;;;5136065;27;20106;-38
2022/06/20 11:48:46;;;;;;;2.45;1.20;;;20.30;50.40;;;;;;5136218;27;20023;-39
2022/06/20 11:51:26;;;;;;;4.20;1.40;;;20.50;50.50;;;;;;5136289;27;20023;-39
2022/06/20 11:54:03;;;;;;;3.50;1.30;;;20.50;50.60;;;;;;5134912;27;20050;-38
2022/06/20 11:56:43;;;;;;;4.80;1.52;;;20.40;50.60;;;;;;5136026;27;20500;-39
2022/06/20 11:59:22;;;;;;;2.10;0.90;;;20.40;50.90;;;;;;5135829;27;20023;-39
2022/06/20 12:01:50;;;;;;;2.47;1.20;;;20.50;51.20;;;;;;5135719;27;20046;-38
2022/06/20 12:04:29;;;;;;;2.45;1.15;;;20.50;50.50;;;;;;5135959;27;20023;-39
2022/06/20 12:07:02;;;;;;;2.50;1.10;;;20.60;50.50;;;;;;5136219;27;20023;-38
2022/06/20 12:09:37;;;;;;;4.75;1.45;;;20.80;50.00;;;;;;5135831;27;20372;-39
2022/06/20 12:12:19;;;;;;;2.55;1.23;;;21.10;49.70;;;;;;5135953;27;20099;-38
2022/06/20 12:15:12;;;;;;;2.78;1.10;;;21.20;48.50;;;;;;5135897;27;20023;-38
2022/06/20 12:17:51;;;;;;;2.42;1.10;;;21.30;49.00;;;;;;5135979;27;20371;-40
2022/06/20 12:23:43;;;;;;;2.78;1.27;;;21.50;49.30;;;;;;5135639;27;20084;-40
2022/06/20 12:26:29;;;;;;;2.15;1.08;;;21.60;48.40;;;;;;5127206;27;20147;-40
2022/06/20 12:28:56;;;;;;;2.78;1.25;;;21.70;48.90;;;;;;5135873;27;20023;-40
2022/06/20 12:31:30;;;;;;;2.38;1.20;;;21.80;48.50;;;;;;5135770;27;20106;-40
2022/06/20 12:34:28;;;;;;;2.97;1.20;;;22.00;48.20;;;;;;5135223;27;20397;-40
2022/06/20 12:37:10;;;;;;;4.70;1.60;;;22.10;47.80;;;;;;5135656;27;20039;-42
2022/06/20 12:39:42;;;;;;;2.88;1.20;;;22.00;47.80;;;;;;5135489;27;20420;-40
2022/06/20 12:42:25;;;;;;;1.75;1.08;;;21.90;48.10;;;;;;5135126;27;20111;-40
2022/06/20 12:44:56;;;;;;;3.38;1.30;;;21.80;48.20;;;;;;5135178;27;20038;-40
2022/06/20 12:47:47;;;;;;;3.33;1.10;;;21.80;48.40;;;;;;5135270;27;20149;-40
2022/06/20 12:50:34;;;;;;;2.33;1.13;;;21.90;47.90;;;;;;5135225;27;20027;-41
2022/06/20 12:53:27;;;;;;;2.42;1.08;;;22.00;47.90;;;;;;5135255;27;20023;-40
2022/06/20 12:56:00;;;;;;;3.65;1.35;;;22.10;47.80;;;;;;5135091;27;20031;-40
2022/06/20 12:58:51;;;;;;;2.95;1.17;;;22.00;48.00;;;;;;5135317;27;20091;-41
2022/06/20 13:01:37;;;;;;;2.90;1.05;;;21.90;47.90;;;;;;5134527;27;20495;-40
2022/06/20 13:04:22;;;;;;;5.10;1.40;;;21.80;48.30;;;;;;5134827;27;20042;-39
2022/06/20 13:06:55;;;;;;;3.00;1.20;;;21.80;48.40;;;;;;5134939;27;20023;-38
2022/06/20 13:09:33;;;;;;;5.35;1.30;;;21.80;48.50;;;;;;5134741;27;20019;-41
2022/06/20 13:12:35;;;;;;;4.03;1.42;;;21.70;48.60;;;;;;5134890;27;20483;-40
2022/06/20 13:15:24;;;;;;;3.25;1.13;;;21.90;48.80;;;;;;5134892;27;20362;-40
2022/06/20 13:18:19;;;;;;;2.15;1.10;;;22.20;48.50;;;;;;5134657;27;20015;-41
2022/06/20 13:21:16;;;;;;;3.85;1.40;;;22.30;48.50;;;;;;5134331;27;20102;-41
2022/06/20 13:23:49;;;;;;;1.95;1.13;;;22.20;48.40;;;;;;5134581;27;20410;-39
2022/06/20 13:26:18;;;;;;;4.25;1.25;;;22.00;49.00;;;;;;5134414;27;20011;-40
2022/06/20 13:28:57;;;;;;;3.20;1.40;;;21.90;49.30;;;;;;5134644;27;20497;-41
2022/06/20 13:31:33;;;;;;;4.35;1.38;;;21.90;49.50;;;;;;5133178;27;20019;-40
2022/06/20 13:34:16;;;;;;;3.88;1.38;;;21.70;49.60;;;;;;5134385;27;20034;-40
2022/06/20 13:36:44;;;;;;;5.30;1.50;;;21.70;49.80;;;;;;5134216;27;20016;-40
2022/06/20 13:39:34;;;;;;;3.78;1.35;;;21.50;50.00;;;;;;5134210;27;20084;-40
2022/06/20 13:42:27;;;;;;;3.58;1.40;;;21.50;49.90;;;;;;5134213;27;20026;-41
2022/06/20 13:45:08;;;;;;;3.97;1.67;;;21.40;49.90;;;;;;5133932;27;20059;-40
2022/06/20 13:47:51;;;;;;;3.53;1.38;;;21.40;49.90;;;;;;5132089;27;20028;-41
2022/06/20 13:50:29;;;;;;;3.63;1.30;;;21.40;50.00;;;;;;5134169;27;20023;-40
2022/06/20 13:53:18;;;;;;;3.58;1.50;;;21.50;50.00;;;;;;5134181;27;20102;-39
2022/06/20 13:55:51;;;;;;;3.08;1.30;;;21.40;50.00;;;;;;5133980;27;20027;-40
2022/06/20 13:58:26;;;;;;;;;;;21.30;50.30;;;;;;5134667;27;20425;-40
2022/06/20 14:01:07;;;;;;;4.05;1.40;;;21.30;50.60;;;;;;5132382;27;19950;-40